Time;durP1;ratioP1;P1;durP2;ratioP2;P2;SDS_P1;SDS_P2;PMS_P1;PMS_P2;Temp;Humidity;BMP_temperature;BMP_pressure;BME280_temperature;BME280_humidity;BME280_pressure;Samples;Min_cycle;Max_cycle;Signal;HPM_P1;HPM_P2
2022/05/30 07:05:21;;;;;;;2.20;0.80;;;;;;;;;;10669362;27;20076;-83
2022/05/30 07:10:23;;;;;;;3.00;0.90;;;;;;;;;;10660065;27;20031;-80
2022/05/30 07:15:24;;;;;;;3.55;0.90;;;;;;;;;;10629141;27;20379;-80
2022/05/30 07:20:25;;;;;;;5.90;1.08;;;;;;;;;;10628145;27;20098;-83
2022/05/30 07:25:26;;;;;;;3.40;1.15;;;;;;;;;;10627160;27;20113;-83
2022/05/30 07:30:28;;;;;;;2.83;1.17;;;;;;;;;;10626673;27;20038;-83
2022/05/30 07:35:35;;;;;;;7.00;1.20;;;;;;;;;;10606505;27;20027;-83
2022/05/30 07:40:49;;;;;;;4.55;1.80;;;;;;;;;;10624133;27;20034;-82
2022/05/30 07:46:11;;;;;;;4.05;2.13;;;;;;;;;;10628863;27;20579;-83
2022/05/30 07:51:13;;;;;;;3.38;1.55;;;;;;;;;;10645077;27;20035;-83
2022/05/30 07:56:17;;;;;;;4.05;2.08;;;;;;;;;;10636648;27;20076;-85
2022/05/30 08:01:20;;;;;;;4.00;1.85;;;;;;;;;;10650311;27;20023;-82
2022/05/30 08:06:22;;;;;;;14.23;8.48;;;;;;;;;;10650929;27;20434;-82
2022/05/30 08:11:24;;;;;;;8.05;4.70;;;;;;;;;;10630287;27;20025;-81
2022/05/30 08:16:27;;;;;;;5.28;3.30;;;;;;;;;;10647614;27;20111;-82
2022/05/30 08:21:31;;;;;;;6.78;4.80;;;;;;;;;;10643009;27;20019;-82
2022/05/30 08:26:32;;;;;;;6.97;4.78;;;;;;;;;;10629860;27;20035;-82
2022/05/30 08:43:06;;;;;;;15.20;10.00;;;;;;;;;;10590535;28;20028;-85
2022/05/30 08:48:29;;;;;;;5.13;2.53;;;;;;;;;;10570683;27;20028;-84
2022/05/30 08:54:11;;;;;;;3.72;2.08;;;;;;;;;;10586882;28;20544;-84
2022/05/30 09:00:12;;;;;;;5.45;2.47;;;;;;;;;;10583763;28;20445;-84
2022/05/30 09:17:28;;;;;;;6.75;2.47;;;;;;;;;;10633753;27;20039;-85
2022/05/30 10:20:43;;;;;;;2.97;1.50;;;;;;;;;;10632764;27;20039;-84
2022/05/30 10:31:58;;;;;;;4.45;1.98;;;;;;;;;;10632499;28;20032;-85
2022/05/30 10:37:41;;;;;;;11.65;6.40;;;;;;;;;;10626332;27;20031;-86
2022/05/30 10:43:28;;;;;;;4.30;2.08;;;;;;;;;;10550835;27;20035;-87
2022/05/30 10:48:54;;;;;;;2.97;1.17;;;;;;;;;;10632703;27;20112;-85
2022/05/30 11:33:44;;;;;;;2.28;1.10;;;;;;;;;;10640783;27;20057;-86
2022/05/30 11:44:47;;;;;;;9.48;6.80;;;;;;;;;;10639007;27;20081;-85
2022/05/30 11:55:27;;;;;;;2.25;1.13;;;;;;;;;;10507802;28;20024;-85
2022/05/30 12:01:01;;;;;;;2.58;0.90;;;;;;;;;;10618850;27;20044;-85
2022/05/30 12:12:00;;;;;;;3.13;1.70;;;;;;;;;;10635522;27;20035;-84
2022/05/30 12:17:13;;;;;;;3.70;1.00;;;;;;;;;;10638444;27;20015;-84
2022/05/30 12:27:55;;;;;;;6.32;3.88;;;;;;;;;;10637735;27;20031;-85
2022/05/30 12:32:59;;;;;;;2.25;0.90;;;;;;;;;;10617819;27;20139;-85
2022/05/30 12:38:29;;;;;;;2.65;1.27;;;;;;;;;;10615386;27;20065;-84
2022/05/30 12:49:42;;;;;;;3.95;3.05;;;;;;;;;;10640922;27;20043;-85
2022/05/30 12:55:24;;;;;;;2.58;1.30;;;;;;;;;;10617040;27;20517;-85
2022/05/30 13:12:51;;;;;;;3.83;1.50;;;;;;;;;;10632275;27;20099;-85
2022/05/30 13:18:07;;;;;;;4.20;1.27;;;;;;;;;;10503400;28;20032;-88
2022/05/30 13:29:01;;;;;;;3.05;1.55;;;;;;;;;;10603038;27;20066;-85
2022/05/30 13:34:22;;;;;;;2.25;1.05;;;;;;;;;;10584540;27;20054;-86
2022/05/30 13:39:39;;;;;;;5.95;3.60;;;;;;;;;;10638965;27;20040;-86
2022/05/30 13:50:36;;;;;;;3.28;1.20;;;;;;;;;;10643528;27;20035;-86
2022/05/30 13:55:38;;;;;;;4.70;1.17;;;;;;;;;;10645494;27;20051;-86
2022/05/30 14:00:39;;;;;;;1.58;0.65;;;;;;;;;;10623985;28;20060;-85
2022/05/30 14:05:41;;;;;;;2.63;0.90;;;;;;;;;;10625130;28;20095;-85
2022/05/30 14:10:44;;;;;;;2.20;1.00;;;;;;;;;;10620857;28;20034;-85
2022/05/30 14:15:53;;;;;;;4.00;2.00;;;;;;;;;;10624681;28;20026;-86
2022/05/30 14:20:54;;;;;;;2.63;0.77;;;;;;;;;;10624705;27;20059;-85
2022/05/30 14:25:55;;;;;;;2.15;1.10;;;;;;;;;;10629405;27;20423;-85
2022/05/30 14:30:57;;;;;;;3.17;1.08;;;;;;;;;;10645402;27;20060;-84
2022/05/30 14:36:17;;;;;;;2.38;1.20;;;;;;;;;;10635618;27;20117;-85
2022/05/30 14:41:24;;;;;;;2.97;1.13;;;;;;;;;;10641777;27;20504;-85
2022/05/30 14:46:35;;;;;;;2.45;0.80;;;;;;;;;;10631690;27;20038;-86
2022/05/30 14:51:38;;;;;;;2.20;1.10;;;;;;;;;;10634547;27;20031;-87
2022/05/30 14:56:41;;;;;;;3.90;1.85;;;;;;;;;;10629985;27;20052;-87
2022/05/30 15:01:42;;;;;;;2.78;1.40;;;;;;;;;;10642714;27;20030;-85
2022/05/30 15:06:44;;;;;;;2.97;1.75;;;;;;;;;;10639941;27;20063;-85
2022/05/30 15:11:48;;;;;;;2.33;1.70;;;;;;;;;;10625469;27;20031;-85
2022/05/30 15:16:50;;;;;;;2.97;1.52;;;;;;;;;;10622422;27;20075;-86
2022/05/30 15:21:53;;;;;;;2.10;1.30;;;;;;;;;;10643414;27;20028;-86
2022/05/30 15:26:54;;;;;;;3.13;1.65;;;;;;;;;;10621497;27;20026;-83
2022/05/30 15:31:56;;;;;;;3.42;1.73;;;;;;;;;;10621310;27;20450;-81
2022/05/30 15:37:00;;;;;;;2.35;1.25;;;;;;;;;;10620715;27;20431;-81
2022/05/30 15:42:05;;;;;;;2.78;1.50;;;;;;;;;;10621572;27;20031;-82
2022/05/30 15:47:11;;;;;;;2.50;1.30;;;;;;;;;;10639833;27;20493;-82
2022/05/30 15:52:26;;;;;;;1.90;1.38;;;;;;;;;;10620729;27;20364;-83
2022/05/30 15:57:29;;;;;;;2.65;1.35;;;;;;;;;;10622761;27;20042;-81
2022/05/30 16:02:30;;;;;;;2.92;1.73;;;;;;;;;;10631761;27;20084;-85
2022/05/30 16:07:32;;;;;;;3.47;2.20;;;;;;;;;;10627812;27;20029;-85
2022/05/30 16:12:36;;;;;;;3.90;2.00;;;;;;;;;;10624285;27;20071;-83
2022/05/30 16:17:38;;;;;;;2.70;1.30;;;;;;;;;;10644886;27;20088;-81
2022/05/30 16:22:42;;;;;;;2.50;1.13;;;;;;;;;;10623442;27;20026;-84
2022/05/30 16:27:45;;;;;;;2.95;1.25;;;;;;;;;;10644249;27;20023;-81
2022/05/30 16:32:47;;;;;;;2.60;1.40;;;;;;;;;;10650282;27;20124;-88
2022/05/30 16:37:48;;;;;;;2.53;1.42;;;;;;;;;;10631888;27;20112;-87
2022/05/30 16:42:49;;;;;;;2.80;1.30;;;;;;;;;;10626622;27;20031;-87
2022/05/30 16:47:50;;;;;;;15.52;11.15;;;;;;;;;;10644418;27;20034;-86
2022/05/30 16:52:59;;;;;;;6.63;3.22;;;;;;;;;;10628696;27;20357;-87
2022/05/30 16:58:08;;;;;;;4.18;2.40;;;;;;;;;;10646801;27;20042;-86
2022/05/30 17:03:31;;;;;;;4.32;2.45;;;;;;;;;;10651832;27;20023;-87
2022/05/30 17:14:43;;;;;;;4.78;2.10;;;;;;;;;;10619435;27;20027;-87
2022/05/30 17:19:47;;;;;;;3.03;1.83;;;;;;;;;;10617469;27;20493;-86
2022/05/30 17:24:49;;;;;;;3.88;1.90;;;;;;;;;;10618412;27;20065;-85
2022/05/30 17:29:51;;;;;;;2.70;2.22;;;;;;;;;;10618459;27;20094;-86
2022/05/30 17:34:52;;;;;;;2.22;1.80;;;;;;;;;;10621456;27;20027;-86
2022/05/30 17:39:53;;;;;;;3.22;1.92;;;;;;;;;;10620877;27;20039;-86
2022/05/30 17:44:54;;;;;;;2.92;1.70;;;;;;;;;;10633427;27;20018;-87
2022/05/30 17:50:00;;;;;;;3.42;1.98;;;;;;;;;;10616316;27;20109;-85
2022/05/30 17:55:03;;;;;;;3.08;2.13;;;;;;;;;;10616995;27;20465;-85
2022/05/30 18:00:15;;;;;;;1.60;1.13;;;;;;;;;;10615074;28;20032;-85
2022/05/30 18:05:16;;;;;;;2.40;1.30;;;;;;;;;;10618794;28;20361;-85
2022/05/30 18:10:26;;;;;;;1.95;1.40;;;;;;;;;;10618917;28;20080;-85
2022/05/30 18:15:34;;;;;;;1.85;1.10;;;;;;;;;;10617059;28;20081;-85
2022/05/30 18:20:38;;;;;;;2.70;1.10;;;;;;;;;;10618595;28;20034;-86
2022/05/30 18:25:39;;;;;;;3.13;1.95;;;;;;;;;;10639478;27;20022;-85
2022/05/30 18:30:48;;;;;;;4.10;1.90;;;;;;;;;;10633050;28;20035;-87
2022/05/30 18:35:59;;;;;;;2.85;1.50;;;;;;;;;;10638273;27;20133;-85
2022/05/30 18:41:08;;;;;;;2.17;1.30;;;;;;;;;;10656631;27;20035;-86
2022/05/30 18:46:22;;;;;;;1.85;1.35;;;;;;;;;;10640671;28;20095;-86
2022/05/30 18:51:23;;;;;;;2.78;1.52;;;;;;;;;;10638165;28;20031;-87
2022/05/30 18:56:31;;;;;;;2.90;1.48;;;;;;;;;;10618571;28;20007;-86
2022/05/30 19:01:35;;;;;;;2.85;1.40;;;;;;;;;;10627190;28;20027;-87
2022/05/30 19:06:37;;;;;;;3.33;1.40;;;;;;;;;;10623707;27;20586;-86
2022/05/30 19:11:54;;;;;;;2.70;1.52;;;;;;;;;;10632319;27;20469;-86
2022/05/30 19:22:16;;;;;;;2.42;1.30;;;;;;;;;;10644937;27;20039;-86
